Terminal Aerodrome Forecast
Issued by NWS Cleveland, OH

Home | Current Version | Previous Version | Text Only | Print | Product List | Glossary On
Versions: 1 2 3 4 5 6 7 8 9 10 11 12 13 14 15 16 17 18 19 20 21 22 23 24 25 26 27 28 29 30
000
FTUS41 KCLE 010800 AAB
TAFCLE
TAF AMD
KCLE 010843Z 0109/0212 20005KT 1 1/2SM -SN SCT008 OVC025
     FM011000 20006KT 1 1/2SM -SN OVC008
     FM011600 08012KT 3/4SM -SN OVC006
     FM011900 06015KT 1/2SM SN OVC004
     FM020900 05015G25KT 2SM -SN BLSN OVC006=

USA.gov is the U.S. government's official web portal to all federal, state and local government web resources and services.